createdAt,value
2016-09-06T00:00:09.094Z,99.34
2016-09-06T00:01:09.070Z,99.34
2016-09-06T00:02:09.051Z,98.96
2016-09-06T00:03:09.027Z,99.15
2016-09-06T00:04:09.007Z,99.34
2016-09-06T00:05:08.984Z,99.24
2016-09-06T00:06:08.967Z,99.24
2016-09-06T00:07:08.940Z,98.96
2016-09-06T00:08:08.920Z,99.34
2016-09-06T00:09:08.898Z,99.34
2016-09-06T00:10:08.877Z,99.44
2016-09-06T00:11:08.855Z,99.34
2016-09-06T00:12:08.840Z,99.15
2016-09-06T00:13:08.813Z,99.24
2016-09-06T00:14:08.802Z,99.34
2016-09-06T00:15:08.769Z,99.15
2016-09-06T00:16:08.748Z,98.96
2016-09-06T00:17:08.728Z,99.34
2016-09-06T00:18:08.704Z,98.77
2016-09-06T00:19:08.687Z,98.96
2016-09-06T00:20:08.662Z,98.86
2016-09-06T00:21:08.639Z,98.86
2016-09-06T00:22:08.616Z,98.77
2016-09-06T00:23:08.603Z,98.77
2016-09-06T00:24:08.580Z,98.77
2016-09-06T00:25:08.554Z,98.52
2016-09-06T00:26:08.531Z,99.01
2016-09-06T00:27:08.510Z,99.05
2016-09-06T00:28:08.488Z,98.91
2016-09-06T00:29:08.466Z,98.72
2016-09-06T00:30:08.445Z,99.29
2016-09-06T00:31:08.422Z,99.48
2016-09-06T00:32:08.398Z,99.29
2016-09-06T00:33:08.378Z,99.48
2016-09-06T00:34:08.355Z,98.72
2016-09-06T00:35:08.334Z,99.1
2016-09-06T00:36:08.313Z,99.1
2016-09-06T00:37:08.292Z,99.01
2016-09-06T00:38:08.267Z,99.1
2016-09-06T00:39:08.248Z,99.1
2016-09-06T00:40:08.223Z,99.29
2016-09-06T00:41:08.203Z,99.29
2016-09-06T00:42:08.181Z,98.81
2016-09-06T00:43:08.161Z,99.01
2016-09-06T00:44:08.137Z,99.19
2016-09-06T00:45:08.116Z,99.29
2016-09-06T00:46:08.114Z,99.48
2016-09-06T00:47:08.077Z,99.48
2016-09-06T00:48:08.049Z,99.48
2016-09-06T00:49:08.028Z,99.58
2016-09-06T00:50:08.003Z,99.58
2016-09-06T00:51:07.984Z,99.96
2016-09-06T00:52:07.961Z,99.48
2016-09-06T00:53:07.940Z,99.29
2016-09-06T00:54:07.915Z,99.48
2016-09-06T00:55:07.896Z,99.1
2016-09-06T00:56:07.875Z,99.39
2016-09-06T00:57:07.852Z,99.29
2016-09-06T00:58:07.829Z,99.1
2016-09-06T00:59:07.809Z,99.19
2016-09-06T01:00:07.787Z,99.39
2016-09-06T01:01:07.764Z,99.19
2016-09-06T01:02:07.742Z,99.01
2016-09-06T01:03:07.721Z,99.29
2016-09-06T01:04:07.701Z,99.1
2016-09-06T01:05:07.676Z,98.52
2016-09-06T01:06:07.652Z,98.91
2016-09-06T01:07:07.632Z,98.72
2016-09-06T01:08:07.621Z,98.72
2016-09-06T01:09:07.587Z,98.72
2016-09-06T01:10:07.566Z,98.52
2016-09-06T01:11:07.545Z,98.91
2016-09-06T01:12:07.521Z,99.01
2016-09-06T01:13:07.500Z,99.1
2016-09-06T01:14:07.478Z,99.19
2016-09-06T01:15:07.456Z,99.1
2016-09-06T01:16:07.434Z,99.1
2016-09-06T01:17:07.412Z,99.19
2016-09-06T01:18:07.390Z,99.1
2016-09-06T01:19:07.370Z,99.1
2016-09-06T01:20:07.345Z,98.91
2016-09-06T01:21:07.334Z,99.29
2016-09-06T01:22:07.306Z,99.39
2016-09-06T01:23:07.278Z,99.29
2016-09-06T01:24:07.257Z,99.48
2016-09-06T01:25:07.235Z,98.91
2016-09-06T01:26:07.213Z,99.39
2016-09-06T01:27:07.190Z,99.29
2016-09-06T01:28:07.168Z,99.29
2016-09-06T01:29:07.145Z,99.1
2016-09-06T01:30:07.124Z,99.29
2016-09-06T01:31:07.101Z,99.1
2016-09-06T01:32:07.080Z,99.1
2016-09-06T01:33:07.057Z,99.01
2016-09-06T01:34:07.036Z,99.29
2016-09-06T01:35:07.022Z,99.29
2016-09-06T01:36:06.991Z,99.39
2016-09-06T01:37:06.970Z,99.39
2016-09-06T01:38:06.947Z,99.1
2016-09-06T01:39:06.925Z,99.1
2016-09-06T01:40:06.903Z,99.19
2016-09-06T01:41:06.880Z,99.29
2016-09-06T01:42:06.858Z,99.53
2016-09-06T01:43:06.836Z,99.01
2016-09-06T01:44:06.815Z,99.24
2016-09-06T01:45:06.791Z,98.57
2016-09-06T01:46:06.770Z,98.72
2016-09-06T01:47:06.747Z,98.86
2016-09-06T01:48:06.726Z,98.67
2016-09-06T01:49:06.703Z,98.96
2016-09-06T01:50:06.687Z,98.38
2016-09-06T01:51:06.663Z,98.86
2016-09-06T01:52:06.634Z,98.47
2016-09-06T01:53:06.615Z,98.96
2016-09-06T01:54:06.590Z,98.67
2016-09-06T01:55:06.570Z,98.38
2016-09-06T01:56:06.545Z,98.57
2016-09-06T01:57:06.524Z,98.76
2016-09-06T01:58:06.502Z,98.67
2016-09-06T01:59:06.481Z,98.57
2016-09-06T02:00:06.458Z,98.86
2016-09-06T02:01:06.438Z,98.67
2016-09-06T02:02:06.414Z,99.05
2016-09-06T02:03:06.396Z,99.15
2016-09-06T02:04:06.368Z,98.67
2016-09-06T02:05:06.348Z,98.86
2016-09-06T02:06:06.325Z,98.67
2016-09-06T02:07:06.302Z,98.47
2016-09-06T02:08:06.281Z,98.47
2016-09-06T02:09:06.259Z,99.24
2016-09-06T02:10:06.237Z,99.15
2016-09-06T02:11:06.211Z,99.15
2016-09-06T02:12:06.191Z,98.96
2016-09-06T02:13:06.179Z,99.34
2016-09-06T02:14:06.146Z,98.86
2016-09-06T02:15:06.124Z,98.76
2016-09-06T02:16:06.102Z,98.86
2016-09-06T02:17:06.079Z,98.47
2016-09-06T02:18:06.056Z,98.86
2016-09-06T02:19:06.033Z,98.86
2016-09-06T02:20:06.027Z,98.86
2016-09-06T02:21:05.988Z,98.86
2016-09-06T02:22:05.967Z,99.24
2016-09-06T02:23:05.945Z,99.15
2016-09-06T02:24:05.922Z,99.15
2016-09-06T02:25:05.900Z,99.24
2016-09-06T02:26:05.881Z,98.86
2016-09-06T02:27:05.854Z,99.15
2016-09-06T02:28:05.833Z,98.67
2016-09-06T02:29:05.810Z,98.67
2016-09-06T02:30:05.788Z,98.76
2016-09-06T02:31:05.764Z,98.81
2016-09-06T02:32:05.741Z,98.76
2016-09-06T02:33:05.721Z,98.43
2016-09-06T02:34:05.697Z,98.52
2016-09-06T02:35:05.675Z,98.05
2016-09-06T02:36:05.652Z,98.33
2016-09-06T02:37:05.630Z,98.43
2016-09-06T02:38:05.607Z,98.71
2016-09-06T02:39:05.585Z,98.52
2016-09-06T02:40:05.562Z,98.81
2016-09-06T02:41:05.539Z,98.81
2016-09-06T02:42:05.516Z,98.62
2016-09-06T02:43:05.499Z,98.62
2016-09-06T02:44:05.471Z,98.33
2016-09-06T02:45:05.448Z,98.43
2016-09-06T02:46:05.426Z,98.52
2016-09-06T02:47:05.401Z,98.71
2016-09-06T02:48:05.380Z,98.91
2016-09-06T02:49:05.358Z,98.81
2016-09-06T02:50:05.336Z,98.81
2016-09-06T02:51:05.328Z,98.71
2016-09-06T02:52:05.290Z,98.62
2016-09-06T02:53:05.266Z,98.71
2016-09-06T02:54:05.244Z,98.43
2016-09-06T02:55:05.221Z,98.81
2016-09-06T02:56:05.199Z,99.1
2016-09-06T02:57:05.175Z,98.43
2016-09-06T02:58:05.150Z,98.43
2016-09-06T02:59:05.130Z,98.81
2016-09-06T03:00:05.106Z,98.33
2016-09-06T03:01:05.085Z,98.62
2016-09-06T03:02:05.060Z,98.52
2016-09-06T03:03:05.038Z,98.81
2016-09-06T03:04:05.015Z,99
2016-09-06T03:05:04.993Z,99
2016-09-06T03:06:04.968Z,99.1
2016-09-06T03:07:04.948Z,99.19
2016-09-06T03:08:04.924Z,99.19
2016-09-06T03:09:04.902Z,99.1
2016-09-06T03:10:04.881Z,99.1
2016-09-06T03:11:04.855Z,99.19
2016-09-06T03:12:04.835Z,99.19
2016-09-06T03:13:04.811Z,99.19
2016-09-06T03:14:04.796Z,98.91
2016-09-06T03:15:04.766Z,98.81
2016-09-06T03:16:04.740Z,98.76
2016-09-06T03:17:04.719Z,98.95
2016-09-06T03:18:04.695Z,99.29
2016-09-06T03:19:04.679Z,99.15
2016-09-06T03:20:04.649Z,99.1
2016-09-06T03:21:04.629Z,99.24
2016-09-06T03:22:04.604Z,99.52
2016-09-06T03:23:04.584Z,99.67
2016-09-06T03:24:04.558Z,99.48
2016-09-06T03:25:04.540Z,99.15
2016-09-06T03:26:04.512Z,99.19
2016-09-06T03:27:04.491Z,99.29
2016-09-06T03:28:04.467Z,99.19
2016-09-06T03:29:04.446Z,99.19
2016-09-06T03:30:04.422Z,98.81
2016-09-06T03:31:04.400Z,98.86
2016-09-06T03:32:04.376Z,99.29
2016-09-06T03:33:04.355Z,99.1
2016-09-06T03:34:04.331Z,99.15
2016-09-06T03:35:04.310Z,99.29
2016-09-06T03:36:04.285Z,99.48
2016-09-06T03:37:04.265Z,99.19
2016-09-06T03:38:04.239Z,99.38
2016-09-06T03:39:04.219Z,99.19
2016-09-06T03:40:04.194Z,99.48
2016-09-06T03:41:04.186Z,99.58
2016-09-06T03:42:04.148Z,99.38
2016-09-06T03:43:04.127Z,99.33
2016-09-06T03:44:04.104Z,99.38
2016-09-06T03:45:04.081Z,99.58
2016-09-06T03:46:04.057Z,99.48
2016-09-06T03:47:04.035Z,99.43
2016-09-06T03:48:04.011Z,99.29
2016-09-06T03:49:03.989Z,99.38
2016-09-06T03:50:03.965Z,99.29
2016-09-06T03:51:03.943Z,99.48
2016-09-06T03:52:03.920Z,99.81
2016-09-06T03:53:03.897Z,99.19
2016-09-06T03:54:03.873Z,99.38
2016-09-06T03:55:03.853Z,98.91
2016-09-06T03:56:03.828Z,99.15
2016-09-06T03:57:03.807Z,99
2016-09-06T03:58:03.784Z,98.95
2016-09-06T03:59:03.761Z,98.95
2016-09-06T04:00:03.745Z,99.38
2016-09-06T04:01:03.715Z,99.15
2016-09-06T04:02:03.693Z,98.91
2016-09-06T04:03:03.669Z,99.19
2016-09-06T04:04:03.646Z,98.52
2016-09-06T04:05:03.625Z,98.62
2016-09-06T04:06:03.601Z,98.71
2016-09-06T04:07:03.577Z,98.81
2016-09-06T04:08:03.555Z,98.71
2016-09-06T04:09:03.532Z,98.47
2016-09-06T04:10:03.509Z,98.28
2016-09-06T04:11:03.483Z,98.47
2016-09-06T04:12:03.461Z,98.76
2016-09-06T04:13:03.438Z,98.86
2016-09-06T04:14:03.418Z,98.47
2016-09-06T04:15:03.393Z,98.91
2016-09-06T04:16:03.372Z,98.66
2016-09-06T04:17:03.347Z,98.76
2016-09-06T04:18:03.325Z,98.38
2016-09-06T04:19:03.301Z,98.76
2016-09-06T04:20:03.281Z,98.57
2016-09-06T04:21:03.254Z,98.28
2016-09-06T04:22:03.234Z,98.95
2016-09-06T04:23:03.209Z,98.86
2016-09-06T04:24:03.187Z,98.95
2016-09-06T04:25:03.163Z,98.95
2016-09-06T04:26:03.142Z,98.66
2016-09-06T04:27:03.117Z,98.57
2016-09-06T04:28:03.096Z,99.15
2016-09-06T04:29:03.071Z,98.47
2016-09-06T04:30:03.049Z,99.33
2016-09-06T04:31:03.025Z,99.05
2016-09-06T04:32:03.004Z,98.95
2016-09-06T04:33:02.985Z,98.95
2016-09-06T04:34:02.957Z,99.05
2016-09-06T04:35:02.934Z,99.15
2016-09-06T04:36:02.913Z,99.15
2016-09-06T04:37:02.889Z,99.24
2016-09-06T04:38:02.865Z,99.91
2016-09-06T04:39:02.844Z,99.52
2016-09-06T04:40:02.831Z,99.43
2016-09-06T04:41:02.797Z,99.99
2016-09-06T04:42:02.771Z,99.33
2016-09-06T04:43:02.755Z,99.43
2016-09-06T04:44:02.728Z,99.38
2016-09-06T04:45:02.705Z,99.43
2016-09-06T04:46:02.682Z,99.33
2016-09-06T04:47:02.665Z,99.15
2016-09-06T04:48:02.634Z,99.05
2016-09-06T04:49:02.613Z,99.15
2016-09-06T04:50:02.589Z,98.95
2016-09-06T04:51:02.566Z,99
2016-09-06T04:52:02.542Z,99.15
2016-09-06T04:53:02.522Z,99.29
2016-09-06T04:54:02.497Z,99.33
2016-09-06T04:55:02.475Z,99.15
2016-09-06T04:56:02.451Z,98.95
2016-09-06T04:57:02.431Z,99.15
2016-09-06T04:58:02.406Z,98.95
2016-09-06T04:59:02.389Z,99
2016-09-06T05:00:02.668Z,98.95
2016-09-06T05:01:02.339Z,99.15
2016-09-06T05:02:02.315Z,98.76
2016-09-06T05:03:02.293Z,99.24
2016-09-06T05:04:02.278Z,99.33
2016-09-06T05:05:02.247Z,99.43
2016-09-06T05:06:02.222Z,99.52
2016-09-06T05:07:02.201Z,99.38
2016-09-06T05:08:02.177Z,99.43
2016-09-06T05:09:02.156Z,99.24
2016-09-06T05:10:02.132Z,99.1
2016-09-06T05:11:02.111Z,99.19
2016-09-06T05:12:02.087Z,99.38
2016-09-06T05:13:02.065Z,99.24
2016-09-06T05:14:02.043Z,99.58
2016-09-06T05:15:02.033Z,99.58
2016-09-06T05:16:01.996Z,99.58
2016-09-06T05:17:01.973Z,99.96
2016-09-06T05:18:01.951Z,99.19
2016-09-06T05:19:01.927Z,99.48
2016-09-06T05:20:01.906Z,99.58
2016-09-06T05:21:01.881Z,99.87
2016-09-06T05:22:01.860Z,99.99
2016-09-06T05:23:01.835Z,99.87
2016-09-06T05:24:01.814Z,99.67
2016-09-06T05:25:01.791Z,99.77
2016-09-06T05:26:01.774Z,99.87
2016-09-06T05:27:01.748Z,99.67
2016-09-06T05:28:01.724Z,99.77
2016-09-06T05:29:01.702Z,99.99
2016-09-06T05:30:01.681Z,99.99
2016-09-06T05:31:01.656Z,99.38
2016-09-06T05:32:01.634Z,99.99
2016-09-06T05:33:01.612Z,99.38
2016-09-06T05:34:01.590Z,99.77
2016-09-06T05:35:01.566Z,99.77
2016-09-06T05:36:01.842Z,99.58
2016-09-06T05:37:01.521Z,99.77
2016-09-06T05:38:01.498Z,99.91
2016-09-06T05:39:01.477Z,99.87
2016-09-06T05:40:01.463Z,99.58
2016-09-06T05:41:01.431Z,99.99
2016-09-06T05:42:01.409Z,99.72
2016-09-06T05:43:01.385Z,99.91
2016-09-06T05:44:01.365Z,99.99
2016-09-06T05:45:01.341Z,99.91
2016-09-06T05:46:01.320Z,99.34
2016-09-06T05:47:01.298Z,99.34
2016-09-06T05:48:01.279Z,99.34
2016-09-06T05:49:01.258Z,99.72
2016-09-06T05:50:01.231Z,99.34
2016-09-06T05:51:01.209Z,99.63
2016-09-06T05:52:01.188Z,99.63
2016-09-06T05:53:01.165Z,99.63
2016-09-06T05:54:01.143Z,99.34
2016-09-06T05:55:01.122Z,99.34
2016-09-06T05:56:01.099Z,99.53
2016-09-06T05:57:01.375Z,99.63
2016-09-06T05:58:01.054Z,99.72
2016-09-06T05:59:01.047Z,99.91
2016-09-06T06:00:01.011Z,99.24
2016-09-06T06:01:00.990Z,99.77
2016-09-06T06:02:00.972Z,99.58
2016-09-06T06:03:00.947Z,99.29
2016-09-06T06:04:00.924Z,99.19
2016-09-06T06:05:00.903Z,99.29
2016-09-06T06:06:00.880Z,99.68
2016-09-06T06:07:00.860Z,99.99
2016-09-06T06:08:00.836Z,99.29
2016-09-06T06:09:00.822Z,99.19
2016-09-06T06:10:00.794Z,99.48
2016-09-06T06:11:00.772Z,99.48
2016-09-06T06:12:00.751Z,99.48
2016-09-06T06:13:00.729Z,99.58
2016-09-06T06:14:00.708Z,99.68
2016-09-06T06:15:00.685Z,99.39
2016-09-06T06:16:00.665Z,99.29
2016-09-06T06:17:00.642Z,99.19
2016-09-06T06:18:00.623Z,99.19
2016-09-06T06:19:00.598Z,99.19
2016-09-06T06:20:00.579Z,99.34
2016-09-06T06:21:00.556Z,99.19
2016-09-06T06:22:00.534Z,99.53
2016-09-06T06:23:00.512Z,99.53
2016-09-06T06:24:00.494Z,99.53
2016-09-06T06:25:00.487Z,99.15
2016-09-06T06:26:00.449Z,99.05
2016-09-06T06:27:00.433Z,99.24
2016-09-06T06:28:00.406Z,99.05
2016-09-06T06:29:00.386Z,99.34
2016-09-06T06:30:00.363Z,99.24
2016-09-06T06:31:00.351Z,99.05
2016-09-06T06:32:00.322Z,99.24
2016-09-06T06:33:00.303Z,98.96
2016-09-06T06:34:00.281Z,99.63
2016-09-06T06:35:00.261Z,99.91
2016-09-06T06:36:00.239Z,99.34
2016-09-06T06:37:00.219Z,99.58
2016-09-06T06:38:00.198Z,99.77
2016-09-06T06:39:00.178Z,99.49
2016-09-06T06:40:00.156Z,99.29
2016-09-06T06:41:00.134Z,99.2
2016-09-06T06:42:00.115Z,99.1
2016-09-06T06:43:00.092Z,99.2
2016-09-06T06:44:00.073Z,99.2
2016-09-06T06:45:00.051Z,99.2
2016-09-06T06:46:00.033Z,99.39
2016-09-06T06:47:00.011Z,99.39
2016-09-06T06:47:59.990Z,98.91
2016-09-06T06:48:59.971Z,99.01
2016-09-06T06:49:59.951Z,99.58
2016-09-06T06:50:59.930Z,99.58
2016-09-06T06:51:59.909Z,99.58
2016-09-06T06:52:59.889Z,99.34
2016-09-06T06:53:59.866Z,99.34
2016-09-06T06:54:59.861Z,99.63
2016-09-06T06:55:59.825Z,99.34
2016-09-06T06:56:59.808Z,99.73
2016-09-06T06:57:59.787Z,99.99
2016-09-06T06:58:59.766Z,99.99
2016-09-06T06:59:59.746Z,99.82
2016-09-06T07:00:59.727Z,99.99
2016-09-06T07:01:59.786Z,99.78
2016-09-06T07:02:59.683Z,99.99
2016-09-06T07:03:59.663Z,99.99
2016-09-06T07:04:59.645Z,99.99
2016-09-06T07:05:59.623Z,99.49
2016-09-06T07:06:59.604Z,99.78
2016-09-06T07:07:59.583Z,99.49
2016-09-06T07:08:59.578Z,99.58
2016-09-06T07:09:59.543Z,99.58
2016-09-06T07:10:59.523Z,99.58
2016-09-06T07:11:59.506Z,99.99
2016-09-06T07:12:59.485Z,99.49
2016-09-06T07:13:59.463Z,99.99
2016-09-06T07:14:59.519Z,99.97
2016-09-06T07:15:59.426Z,99.97
2016-09-06T07:16:59.496Z,99.83
2016-09-06T07:17:59.405Z,99.54
2016-09-06T07:18:59.366Z,99.44
2016-09-06T07:19:59.346Z,99.63
2016-09-06T07:20:59.326Z,99.35
2016-09-06T07:21:59.306Z,99.44
2016-09-06T07:22:59.289Z,99.35
2016-09-06T07:23:59.271Z,99.54
2016-09-06T07:24:59.248Z,99.44
2016-09-06T07:25:59.369Z,99.25
2016-09-06T07:26:59.209Z,99.15
2016-09-06T07:27:59.189Z,99.35
2016-09-06T07:28:59.171Z,99.54
2016-09-06T07:29:59.152Z,99.59
2016-09-06T07:30:59.133Z,99.35
2016-09-06T07:31:59.112Z,99.49
2016-09-06T07:32:59.093Z,99.88
2016-09-06T07:33:59.075Z,99.78
2016-09-06T07:34:59.057Z,99.98
2016-09-06T07:35:59.037Z,99.78
2016-09-06T07:36:59.017Z,99.68
2016-09-06T07:37:58.998Z,99.68
2016-09-06T07:38:58.978Z,99.3
2016-09-06T07:39:58.966Z,99.44
2016-09-06T07:40:58.939Z,99.16
2016-09-06T07:41:58.922Z,99.54
2016-09-06T07:42:58.912Z,99.73
2016-09-06T07:43:58.885Z,99.64
2016-09-06T07:44:58.866Z,99.64
2016-09-06T07:45:58.847Z,99.16
2016-09-06T07:46:58.826Z,99.54
2016-09-06T07:47:58.808Z,99.64
2016-09-06T07:48:58.791Z,98.96
2016-09-06T07:49:58.772Z,98.87
2016-09-06T07:50:58.751Z,99.01
2016-09-06T07:51:58.734Z,99.21
2016-09-06T07:52:58.715Z,98.92
2016-09-06T07:53:58.697Z,99.3
2016-09-06T07:54:58.680Z,99.3
2016-09-06T07:55:58.660Z,99.01
2016-09-06T07:56:58.642Z,99.21
2016-09-06T07:57:58.623Z,99.21
2016-09-06T07:58:58.610Z,99.21
2016-09-06T07:59:58.586Z,99.16
2016-09-06T08:00:58.567Z,98.54
2016-09-06T08:01:58.548Z,99.11
2016-09-06T08:02:58.531Z,99.06
2016-09-06T08:03:58.513Z,99.4
2016-09-06T08:04:58.501Z,99.26
2016-09-06T08:05:58.483Z,99.44
2016-09-06T08:06:58.458Z,99.35
2016-09-06T08:07:58.440Z,98.97
2016-09-06T08:08:58.419Z,99.54
2016-09-06T08:09:58.403Z,99.16
2016-09-06T08:10:58.384Z,99.35
2016-09-06T08:11:58.377Z,99.16
2016-09-06T08:12:58.352Z,99.11
2016-09-06T08:13:58.332Z,98.92
2016-09-06T08:14:58.319Z,98.72
2016-09-06T08:15:58.345Z,99.21
2016-09-06T08:16:58.277Z,99.02
2016-09-06T08:17:58.260Z,99.02
2016-09-06T08:18:58.241Z,99.11
2016-09-06T08:19:58.226Z,99.02
2016-09-06T08:20:58.206Z,99.11
2016-09-06T08:21:58.190Z,99.02
2016-09-06T08:22:58.177Z,98.97
2016-09-06T08:23:58.153Z,98.87
2016-09-06T08:24:58.137Z,98.77
2016-09-06T08:25:58.118Z,98.87
2016-09-06T08:26:58.114Z,99.35
2016-09-06T08:27:58.085Z,99.16
2016-09-06T08:28:58.066Z,99.16
2016-09-06T08:29:58.046Z,99.16
2016-09-06T08:30:58.031Z,99.26
2016-09-06T08:31:58.013Z,98.97
2016-09-06T08:32:57.998Z,98.97
2016-09-06T08:33:57.978Z,98.77
2016-09-06T08:34:57.961Z,98.58
2016-09-06T08:35:57.946Z,99.11
2016-09-06T08:36:57.926Z,98.92
2016-09-06T08:37:57.908Z,98.73
2016-09-06T08:38:57.890Z,98.73
2016-09-06T08:39:57.874Z,98.54
2016-09-06T08:40:57.854Z,98.73
2016-09-06T08:41:57.840Z,98.73
2016-09-06T08:42:57.820Z,98.73
2016-09-06T08:43:57.810Z,98.63
2016-09-06T08:44:57.786Z,99.02
2016-09-06T08:45:57.771Z,98.73
2016-09-06T08:46:57.768Z,99.02
2016-09-06T08:47:57.736Z,98.92
2016-09-06T08:48:57.719Z,98.82
2016-09-06T08:49:57.702Z,98.82
2016-09-06T08:50:57.685Z,98.54
2016-09-06T08:51:57.666Z,98.54
2016-09-06T08:52:57.650Z,98.68
2016-09-06T08:53:57.633Z,98.68
2016-09-06T08:54:57.617Z,98.68
2016-09-06T08:55:57.598Z,98.49
2016-09-06T08:56:57.583Z,98.87
2016-09-06T08:57:57.565Z,98.87
2016-09-06T08:58:57.550Z,98.78
2016-09-06T08:59:57.831Z,98.2
2016-09-06T09:00:57.516Z,98.68
2016-09-06T09:01:57.500Z,98.97
2016-09-06T09:02:57.482Z,98.58
2016-09-06T09:03:57.466Z,99.07
2016-09-06T09:04:57.448Z,99.02
2016-09-06T09:05:57.433Z,98.92
2016-09-06T09:06:57.414Z,99.02
2016-09-06T09:07:57.399Z,98.92
2016-09-06T09:08:57.383Z,98.83
2016-09-06T09:09:57.365Z,98.73
2016-09-06T09:10:57.352Z,98.83
2016-09-06T09:11:57.332Z,98.15
2016-09-06T09:12:57.317Z,98.34
2016-09-06T09:13:57.300Z,98.34
2016-09-06T09:14:57.283Z,98.92
2016-09-06T09:15:57.265Z,98.54
2016-09-06T09:16:57.250Z,98
2016-09-06T09:17:57.231Z,97.91
2016-09-06T09:18:57.218Z,97.91
2016-09-06T09:19:57.198Z,97.81
2016-09-06T09:20:57.504Z,98.3
2016-09-06T09:21:57.166Z,98
2016-09-06T09:22:57.153Z,98.39
2016-09-06T09:23:57.134Z,98.3
2016-09-06T09:24:57.119Z,98.2
2016-09-06T09:25:57.101Z,98.25
2016-09-06T09:26:57.087Z,98.25
2016-09-06T09:27:57.070Z,98.44
2016-09-06T09:28:57.053Z,97.77
2016-09-06T09:29:57.038Z,97.67
2016-09-06T09:30:57.026Z,97.77
2016-09-06T09:31:57.007Z,97.77
2016-09-06T09:32:56.989Z,97.96
2016-09-06T09:33:56.974Z,97.77
2016-09-06T09:34:56.959Z,97.77
2016-09-06T09:35:56.942Z,97.86
2016-09-06T09:36:56.925Z,98.05
2016-09-06T09:37:56.910Z,97.96
2016-09-06T09:38:56.893Z,97.38
2016-09-06T09:39:56.878Z,97.19
2016-09-06T09:41:56.857Z,96.8
2016-09-06T09:42:56.831Z,97.23
2016-09-06T09:43:56.817Z,97.33
2016-09-06T09:44:56.798Z,96.94
2016-09-06T09:45:56.781Z,96.8
2016-09-06T09:46:56.770Z,97.23
2016-09-06T09:47:56.751Z,97.04
2016-09-06T09:48:57.005Z,97.33
2016-09-06T09:49:56.720Z,96.75
2016-09-06T09:50:56.702Z,96.75
2016-09-06T09:51:56.690Z,97.04
2016-09-06T09:52:56.674Z,97.42
2016-09-06T09:53:56.657Z,97.52
2016-09-06T09:54:56.641Z,97.42
2016-09-06T09:55:56.626Z,96.94
2016-09-06T09:56:56.609Z,96.99
2016-09-06T09:57:56.606Z,97.28
2016-09-06T09:58:56.579Z,96.89
2016-09-06T09:59:56.561Z,96.89
2016-09-06T10:00:56.550Z,97.09
2016-09-06T10:01:56.532Z,97.18
2016-09-06T10:02:56.516Z,96.51
2016-09-06T10:03:56.503Z,96.41
2016-09-06T10:04:56.483Z,96.7
2016-09-06T10:05:56.469Z,96.8
2016-09-06T10:06:56.452Z,96.99
2016-09-06T10:07:56.438Z,97.57
2016-09-06T10:08:56.420Z,97.18
2016-09-06T10:09:56.407Z,96.89
2016-09-06T10:10:56.392Z,97.23
2016-09-06T10:11:56.374Z,97.23
2016-09-06T10:12:56.359Z,97.04
2016-09-06T10:13:56.343Z,97.23
2016-09-06T10:14:56.329Z,97.42
2016-09-06T10:15:56.314Z,97.04
2016-09-06T10:16:56.299Z,97.62
2016-09-06T10:17:56.582Z,97.18
2016-09-06T10:18:56.268Z,96.5
2016-09-06T10:19:56.252Z,97.28
2016-09-06T10:20:56.235Z,97.23
2016-09-06T10:21:56.223Z,97.18
2016-09-06T10:22:56.206Z,97.08
2016-09-06T10:23:56.192Z,96.99
2016-09-06T10:24:56.175Z,97.18
2016-09-06T10:25:56.162Z,97.18
2016-09-06T10:26:56.146Z,97.28
2016-09-06T10:27:56.131Z,96.89
2016-09-06T10:28:56.116Z,97.38
2016-09-06T10:29:56.102Z,97.28
2016-09-06T10:30:56.086Z,96.5
2016-09-06T10:31:56.071Z,96.8
2016-09-06T10:32:56.055Z,96.65
2016-09-06T10:33:56.046Z,96.84
2016-09-06T10:34:56.024Z,96.26
2016-09-06T10:35:56.011Z,95.97
2016-09-06T10:36:55.997Z,95.58
2016-09-06T10:37:55.981Z,96.07
2016-09-06T10:38:55.968Z,96.07
2016-09-06T10:39:55.951Z,95.78
2016-09-06T10:40:55.937Z,96.36
2016-09-06T10:41:55.921Z,96.6
2016-09-06T10:42:55.908Z,95.83
2016-09-06T10:43:55.893Z,96.41
2016-09-06T10:44:55.880Z,96.31
2016-09-06T10:45:55.864Z,96.12
2016-09-06T10:46:55.849Z,95.92
2016-09-06T10:47:55.840Z,96.02
2016-09-06T10:48:55.820Z,96.12
2016-09-06T10:49:55.804Z,96.12
2016-09-06T10:50:55.791Z,96.31
2016-09-06T10:51:55.776Z,95.63
2016-09-06T10:52:55.762Z,94.85
2016-09-06T10:53:55.746Z,94.85
2016-09-06T10:54:55.734Z,95.15
2016-09-06T10:55:55.718Z,95.25
2016-09-06T10:56:55.705Z,95.83
2016-09-06T10:57:55.689Z,95.63
2016-09-06T10:58:55.678Z,95.53
2016-09-06T10:59:55.661Z,95.68
2016-09-06T11:00:55.648Z,95.78
2016-09-06T11:01:55.634Z,95.78
2016-09-06T11:02:55.619Z,95.68
2016-09-06T11:03:55.605Z,95.97
2016-09-06T11:04:55.591Z,95.1
2016-09-06T11:05:55.574Z,95.19
2016-09-06T11:06:55.563Z,95.29
2016-09-06T11:07:55.552Z,95.48
2016-09-06T11:08:55.533Z,94.95
2016-09-06T11:09:55.520Z,94.27
2016-09-06T11:10:55.505Z,94.03
2016-09-06T11:11:55.493Z,94.03
2016-09-06T11:12:55.478Z,94.56
2016-09-06T11:13:55.466Z,94.37
2016-09-06T11:14:55.449Z,94.27
2016-09-06T11:15:55.436Z,94.17
2016-09-06T11:16:55.422Z,94.27
2016-09-06T11:17:55.410Z,94.17
2016-09-06T11:18:55.395Z,94.17
2016-09-06T11:19:55.381Z,93.59
2016-09-06T11:20:55.369Z,93.69
2016-09-06T11:21:55.354Z,93.59
2016-09-06T11:22:55.342Z,93.44
2016-09-06T11:23:55.328Z,92.18
2016-09-06T11:24:55.314Z,92.86
2016-09-06T11:25:55.299Z,92.28
2016-09-06T11:26:55.287Z,92.76
2016-09-06T11:27:55.273Z,92.72
2016-09-06T11:28:55.263Z,92.38
2016-09-06T11:29:55.247Z,92.47
2016-09-06T11:30:55.232Z,92.57
2016-09-06T11:31:55.219Z,92.67
2016-09-06T11:32:55.207Z,92.47
2016-09-06T11:33:55.192Z,92.08
2016-09-06T11:34:55.179Z,91.41
2016-09-06T11:35:55.166Z,91.89
2016-09-06T11:36:55.154Z,91.74
2016-09-06T11:37:55.142Z,90.58
2016-09-06T11:38:55.126Z,89.56
2016-09-06T11:39:55.119Z,89.76
2016-09-06T11:40:55.100Z,90.24
2016-09-06T11:41:55.089Z,90.44
2016-09-06T11:42:55.075Z,90.44
2016-09-06T11:43:55.060Z,90.24
2016-09-06T11:44:55.379Z,90.24
2016-09-06T11:45:55.034Z,90.63
2016-09-06T11:46:55.021Z,90.48
2016-09-06T11:47:55.006Z,90.67
2016-09-06T11:48:54.996Z,90.58
2016-09-06T11:49:54.981Z,90.58
2016-09-06T11:50:54.969Z,90.58
2016-09-06T11:51:54.956Z,89.12
2016-09-06T11:52:54.943Z,89.12
2016-09-06T11:53:54.930Z,89.9
2016-09-06T11:54:54.918Z,89.51
2016-09-06T11:55:54.904Z,89.17
2016-09-06T11:56:54.890Z,89.22
2016-09-06T11:57:54.879Z,89.36
2016-09-06T11:58:54.864Z,88.78
2016-09-06T11:59:54.853Z,88.58
2016-09-06T12:00:54.838Z,88.48
2016-09-06T12:01:54.826Z,88.58
2016-09-06T12:02:54.812Z,88
2016-09-06T12:03:54.801Z,86.93
2016-09-06T12:04:54.794Z,85.96
2016-09-06T12:05:54.775Z,85.82
2016-09-06T12:06:54.761Z,85.86
2016-09-06T12:07:54.749Z,86.11
2016-09-06T12:08:54.737Z,85.63
2016-09-06T12:09:54.719Z,82.42
2016-09-06T12:10:54.710Z,81.55
2016-09-06T12:11:54.700Z,81.65
2016-09-06T12:12:54.689Z,82.9
2016-09-06T12:13:54.668Z,81.16
2016-09-06T12:14:54.657Z,82.03
2016-09-06T12:15:54.645Z,82.23
2016-09-06T12:16:54.632Z,81.55
2016-09-06T12:17:54.619Z,81.55
2016-09-06T12:18:54.605Z,81.65
2016-09-06T12:19:54.592Z,81.3
2016-09-06T12:20:54.580Z,81.1
2016-09-06T12:21:54.567Z,80.62
2016-09-06T12:22:54.553Z,80.52
2016-09-06T12:23:54.541Z,80.17
2016-09-06T12:24:54.526Z,79.49
2016-09-06T12:25:54.516Z,79.1
2016-09-06T12:26:54.615Z,78.03
2016-09-06T12:27:54.491Z,78.42
2016-09-06T12:28:54.476Z,77.64
2016-09-06T12:29:54.464Z,77.74
2016-09-06T12:30:54.451Z,77.74
2016-09-06T12:31:54.439Z,77.39
2016-09-06T12:32:54.427Z,76.71
2016-09-06T12:33:54.422Z,76.51
2016-09-06T12:34:54.402Z,76.32
2016-09-06T12:35:54.389Z,76.18
2016-09-06T12:36:54.377Z,75.89
2016-09-06T12:37:54.365Z,75.64
2016-09-06T12:38:54.353Z,75.15
2016-09-06T12:39:54.339Z,74.63
2016-09-06T12:40:54.328Z,74.96
2016-09-06T12:41:54.313Z,74.67
2016-09-06T12:42:54.302Z,73.79
2016-09-06T12:43:54.287Z,73.6
2016-09-06T12:44:54.277Z,72.82
2016-09-06T12:45:54.265Z,72.04
2016-09-06T12:46:54.252Z,72.04
2016-09-06T12:47:54.282Z,71.56
2016-09-06T12:48:54.230Z,70.68
2016-09-06T12:49:54.214Z,69.61
2016-09-06T12:50:54.204Z,69.42
2016-09-06T12:51:54.189Z,69.03
2016-09-06T12:52:54.177Z,67.96
2016-09-06T12:53:54.163Z,67.67
2016-09-06T12:54:54.150Z,67.08
2016-09-06T12:55:54.151Z,65.33